createdAt,value
2023-05-19T00:00:31.470Z,69.68
2023-05-19T00:01:31.319Z,69.68
2023-05-19T00:02:31.375Z,69.68
2023-05-19T00:03:31.364Z,69.89
2023-05-19T00:04:31.320Z,69.58
2023-05-19T00:05:31.334Z,69.27
2023-05-19T00:06:31.268Z,69.17
2023-05-19T00:07:31.286Z,69.27
2023-05-19T00:08:31.247Z,69.38
2023-05-19T00:09:31.258Z,69.38
2023-05-19T00:10:31.459Z,69.58
2023-05-19T00:11:31.217Z,69.27
2023-05-19T00:12:31.188Z,69.48
2023-05-19T00:13:31.203Z,69.79
2023-05-19T00:14:31.177Z,70.23
2023-05-19T00:15:31.328Z,70.74
2023-05-19T00:16:31.281Z,71.04
2023-05-19T00:17:31.170Z,70.94
2023-05-19T00:18:31.147Z,71.25
2023-05-19T00:19:31.134Z,71.36
2023-05-19T00:20:31.297Z,71.56
2023-05-19T00:21:31.097Z,71.66
2023-05-19T00:22:31.082Z,71.90
2023-05-19T00:23:31.090Z,72.20
2023-05-19T00:24:31.080Z,72.31
2023-05-19T00:25:31.026Z,72.86
2023-05-19T00:26:31.021Z,72.96
2023-05-19T00:27:31.037Z,72.86
2023-05-19T00:28:31.040Z,72.65
2023-05-19T00:29:31.013Z,72.92
2023-05-19T00:30:31.325Z,72.92
2023-05-19T00:31:30.992Z,72.52
2023-05-19T00:32:31.009Z,72.41
2023-05-19T00:33:30.954Z,72.72
2023-05-19T00:34:30.956Z,72.52
2023-05-19T00:35:30.952Z,72.31
2023-05-19T00:36:30.953Z,72.11
2023-05-19T00:37:30.904Z,72.11
2023-05-19T00:38:30.905Z,71.90
2023-05-19T00:39:30.897Z,71.69
2023-05-19T00:40:31.237Z,71.69
2023-05-19T00:41:30.863Z,71.69
2023-05-19T00:42:30.853Z,72.00
2023-05-19T00:43:30.829Z,71.86
2023-05-19T00:44:30.837Z,71.77
2023-05-19T00:45:30.805Z,71.69
2023-05-19T00:46:30.907Z,71.69
2023-05-19T00:47:30.848Z,72.00
2023-05-19T00:48:30.770Z,72.11
2023-05-19T00:49:30.796Z,72.11
2023-05-19T00:50:31.155Z,72.20
2023-05-19T00:51:30.771Z,72.28
2023-05-19T00:52:30.743Z,72.28
2023-05-19T00:53:30.731Z,72.28
2023-05-19T00:54:30.761Z,72.17
2023-05-19T00:55:30.678Z,72.28
2023-05-19T00:56:30.724Z,72.28
2023-05-19T00:57:30.711Z,72.28
2023-05-19T00:58:30.739Z,72.28
2023-05-19T00:59:30.697Z,72.31
2023-05-19T01:00:30.935Z,72.41
2023-05-19T01:01:30.664Z,72.41
2023-05-19T01:02:30.798Z,72.61
2023-05-19T01:03:30.778Z,72.72
2023-05-19T01:04:30.616Z,72.92
2023-05-19T01:05:30.629Z,73.23
2023-05-19T01:06:30.579Z,73.33
2023-05-19T01:07:30.564Z,73.54
2023-05-19T01:08:30.542Z,73.54
2023-05-19T01:09:30.550Z,73.33
2023-05-19T01:10:30.648Z,73.54
2023-05-19T01:11:30.524Z,73.44
2023-05-19T01:12:30.529Z,73.33
2023-05-19T01:13:30.519Z,73.16
2023-05-19T01:14:30.481Z,72.65
2023-05-19T01:15:30.473Z,72.44
2023-05-19T01:16:30.517Z,72.55
2023-05-19T01:17:30.543Z,72.86
2023-05-19T01:18:30.485Z,72.48
2023-05-19T01:19:30.415Z,72.99
2023-05-19T01:20:30.613Z,73.74
2023-05-19T01:21:30.406Z,74.26
2023-05-19T01:22:30.445Z,74.70
2023-05-19T01:23:30.361Z,75.01
2023-05-19T01:24:30.375Z,75.21
2023-05-19T01:25:30.357Z,75.62
2023-05-19T01:26:30.350Z,75.62
2023-05-19T01:27:30.342Z,75.52
2023-05-19T01:28:30.315Z,75.38
2023-05-19T01:29:30.308Z,75.08
2023-05-19T01:30:30.539Z,74.77
2023-05-19T01:31:30.333Z,74.46
2023-05-19T01:32:30.373Z,74.15
2023-05-19T01:33:30.278Z,73.95
2023-05-19T01:34:30.239Z,73.95
2023-05-19T01:35:30.265Z,74.05
2023-05-19T01:36:30.211Z,73.64
2023-05-19T01:37:30.205Z,73.54
2023-05-19T01:38:30.233Z,73.54
2023-05-19T01:39:30.200Z,73.33
2023-05-19T01:40:30.493Z,73.23
2023-05-19T01:41:30.163Z,73.19
2023-05-19T01:42:30.158Z,73.10
2023-05-19T01:43:30.155Z,73.10
2023-05-19T01:44:30.175Z,73.19
2023-05-19T01:45:30.113Z,73.30
2023-05-19T01:46:30.236Z,73.10
2023-05-19T01:47:30.104Z,73.10
2023-05-19T01:48:30.088Z,72.99
2023-05-19T01:49:30.092Z,72.99
2023-05-19T01:50:30.326Z,72.99
2023-05-19T01:51:30.078Z,73.19
2023-05-19T01:52:30.049Z,72.99
2023-05-19T01:53:30.021Z,72.89
2023-05-19T01:54:30.034Z,72.99
2023-05-19T01:55:30.051Z,73.13
2023-05-19T01:56:30.037Z,73.64
2023-05-19T01:57:30.004Z,73.85
2023-05-19T01:58:29.980Z,73.74
2023-05-19T01:59:29.960Z,73.74
2023-05-19T02:00:30.046Z,73.81
2023-05-19T02:01:30.013Z,73.71
2023-05-19T02:02:29.949Z,73.40
2023-05-19T02:03:29.944Z,72.99
2023-05-19T02:04:29.970Z,73.19
2023-05-19T02:05:29.897Z,73.10
2023-05-19T02:06:29.932Z,72.99
2023-05-19T02:07:29.876Z,72.89
2023-05-19T02:08:29.865Z,72.68
2023-05-19T02:09:29.856Z,72.58
2023-05-19T02:10:29.966Z,72.27
2023-05-19T02:11:29.856Z,72.07
2023-05-19T02:12:29.848Z,72.17
2023-05-19T02:13:29.841Z,71.76
2023-05-19T02:14:29.801Z,71.76
2023-05-19T02:15:29.808Z,71.35
2023-05-19T02:16:29.860Z,71.69
2023-05-19T02:17:29.813Z,72.31
2023-05-19T02:18:29.739Z,72.72
2023-05-19T02:19:29.835Z,72.82
2023-05-19T02:20:29.823Z,72.61
2023-05-19T02:21:29.716Z,72.61
2023-05-19T02:22:29.684Z,72.51
2023-05-19T02:23:29.688Z,72.41
2023-05-19T02:24:29.677Z,72.41
2023-05-19T02:25:29.693Z,72.31
2023-05-19T02:26:29.664Z,72.27
2023-05-19T02:27:29.638Z,72.27
2023-05-19T02:28:29.628Z,72.07
2023-05-19T02:29:29.626Z,72.07
2023-05-19T02:30:29.835Z,71.86
2023-05-19T02:31:29.634Z,72.07
2023-05-19T02:32:29.629Z,72.07
2023-05-19T02:33:29.571Z,71.97
2023-05-19T02:34:29.584Z,71.97
2023-05-19T02:35:29.540Z,72.07
2023-05-19T02:36:29.545Z,72.27
2023-05-19T02:37:29.577Z,72.38
2023-05-19T02:38:29.523Z,72.27
2023-05-19T02:39:29.523Z,72.48
2023-05-19T02:40:29.586Z,72.48
2023-05-19T02:41:29.530Z,72.07
2023-05-19T02:42:29.474Z,72.17
2023-05-19T02:43:29.434Z,72.48
2023-05-19T02:44:29.443Z,72.58
2023-05-19T02:45:29.443Z,72.68
2023-05-19T02:46:29.485Z,72.78
2023-05-19T02:47:29.434Z,72.89
2023-05-19T02:48:29.380Z,72.99
2023-05-19T02:49:29.386Z,73.19
2023-05-19T02:50:29.455Z,73.30
2023-05-19T02:51:29.360Z,73.40
2023-05-19T02:52:29.401Z,73.40
2023-05-19T02:53:29.319Z,73.50
2023-05-19T02:54:29.323Z,73.71
2023-05-19T02:55:29.298Z,73.91
2023-05-19T02:56:29.320Z,74.05
2023-05-19T02:57:29.310Z,74.26
2023-05-19T02:58:29.291Z,74.05
2023-05-19T02:59:29.302Z,73.95
2023-05-19T03:00:29.319Z,73.85
2023-05-19T03:01:29.314Z,73.95
2023-05-19T03:02:29.311Z,73.85
2023-05-19T03:03:29.316Z,74.05
2023-05-19T03:04:29.238Z,73.74
2023-05-19T03:05:29.220Z,73.74
2023-05-19T03:06:29.199Z,73.54
2023-05-19T03:07:29.169Z,73.54
2023-05-19T03:08:29.151Z,73.74
2023-05-19T03:09:29.186Z,73.64
2023-05-19T03:10:29.177Z,73.44
2023-05-19T03:11:29.172Z,73.33
2023-05-19T03:12:29.153Z,73.64
2023-05-19T03:13:29.119Z,73.64
2023-05-19T03:14:29.118Z,73.64
2023-05-19T03:15:29.080Z,73.33
2023-05-19T03:16:29.108Z,73.23
2023-05-19T03:17:29.127Z,73.23
2023-05-19T03:18:29.090Z,73.23
2023-05-19T03:19:29.047Z,73.33
2023-05-19T03:20:29.022Z,73.44
2023-05-19T03:21:29.025Z,73.44
2023-05-19T03:22:29.008Z,73.33
2023-05-19T03:23:28.984Z,73.54
2023-05-19T03:24:28.984Z,73.74
2023-05-19T03:25:28.980Z,73.95
2023-05-19T03:26:28.994Z,73.85
2023-05-19T03:27:29.007Z,73.95
2023-05-19T03:28:28.958Z,73.95
2023-05-19T03:29:28.965Z,73.95
2023-05-19T03:30:28.931Z,73.85
2023-05-19T03:31:28.896Z,73.85
2023-05-19T03:32:28.967Z,73.95
2023-05-19T03:33:29.006Z,73.64
2023-05-19T03:34:28.897Z,73.54
2023-05-19T03:35:28.878Z,73.44
2023-05-19T03:36:28.870Z,73.64
2023-05-19T03:37:28.853Z,73.74
2023-05-19T03:38:28.814Z,73.95
2023-05-19T03:39:28.817Z,73.95
2023-05-19T03:40:28.809Z,74.15
2023-05-19T03:41:28.806Z,74.15
2023-05-19T03:42:28.791Z,73.85
2023-05-19T03:43:28.769Z,73.95
2023-05-19T03:44:28.775Z,73.85
2023-05-19T03:45:28.753Z,73.64
2023-05-19T03:46:28.833Z,73.54
2023-05-19T03:47:28.765Z,73.40
2023-05-19T03:48:28.777Z,73.19
2023-05-19T03:49:28.693Z,73.19
2023-05-19T03:50:28.685Z,73.19
2023-05-19T03:51:28.705Z,73.10
2023-05-19T03:52:28.658Z,72.89
2023-05-19T03:53:28.666Z,72.99
2023-05-19T03:54:28.712Z,73.19
2023-05-19T03:55:28.645Z,73.19
2023-05-19T03:56:28.598Z,73.27
2023-05-19T03:57:28.625Z,73.36
2023-05-19T03:58:28.609Z,73.47
2023-05-19T03:59:28.608Z,73.36
2023-05-19T04:00:28.595Z,73.16
2023-05-19T04:01:28.559Z,73.06
2023-05-19T04:02:28.701Z,72.86
2023-05-19T04:03:28.608Z,72.75
2023-05-19T04:04:28.624Z,72.55
2023-05-19T04:05:28.523Z,72.44
2023-05-19T04:06:28.502Z,72.55
2023-05-19T04:07:28.539Z,72.65
2023-05-19T04:08:28.488Z,72.44
2023-05-19T04:09:28.488Z,72.34
2023-05-19T04:10:28.454Z,72.34
2023-05-19T04:11:28.447Z,72.44
2023-05-19T04:12:28.459Z,72.44
2023-05-19T04:13:28.443Z,72.34
2023-05-19T04:14:28.428Z,71.83
2023-05-19T04:15:28.470Z,71.83
2023-05-19T04:16:28.495Z,71.62
2023-05-19T04:17:28.412Z,71.83
2023-05-19T04:18:29.261Z,72.24
2023-05-19T04:19:28.451Z,71.69
2023-05-19T04:20:28.358Z,71.59
2023-05-19T04:21:28.338Z,71.18
2023-05-19T04:22:28.323Z,71.28
2023-05-19T04:23:28.298Z,71.39
2023-05-19T04:24:28.311Z,71.69
2023-05-19T04:25:28.365Z,71.39
2023-05-19T04:26:28.298Z,71.49
2023-05-19T04:27:28.268Z,71.59
2023-05-19T04:28:28.250Z,71.59
2023-05-19T04:29:28.253Z,71.59
2023-05-19T04:30:28.222Z,72.11
2023-05-19T04:31:28.283Z,72.31
2023-05-19T04:32:28.254Z,72.41
2023-05-19T04:33:28.207Z,72.17
2023-05-19T04:34:28.205Z,72.28
2023-05-19T04:35:28.162Z,72.28
2023-05-19T04:36:28.164Z,72.17
2023-05-19T04:37:28.129Z,71.77
2023-05-19T04:38:28.170Z,71.04
2023-05-19T04:39:28.140Z,70.74
2023-05-19T04:40:28.095Z,70.64
2023-05-19T04:41:28.083Z,70.33
2023-05-19T04:42:28.067Z,69.99
2023-05-19T04:43:28.117Z,69.99
2023-05-19T04:44:28.071Z,69.99
2023-05-19T04:45:28.062Z,69.99
2023-05-19T04:46:28.041Z,70.09
2023-05-19T04:47:28.334Z,70.09
2023-05-19T04:48:27.999Z,70.20
2023-05-19T04:49:28.010Z,70.20
2023-05-19T04:50:28.040Z,70.20
2023-05-19T04:51:29.745Z,70.20
2023-05-19T04:52:27.984Z,70.37
2023-05-19T04:53:27.980Z,70.37
2023-05-19T04:54:27.943Z,70.26
2023-05-19T04:55:27.929Z,70.37
2023-05-19T04:56:27.954Z,70.26
2023-05-19T04:57:27.899Z,70.06
2023-05-19T04:58:27.920Z,70.06
2023-05-19T04:59:27.883Z,69.96
2023-05-19T05:00:27.907Z,70.06
2023-05-19T05:01:28.042Z,70.16
2023-05-19T05:02:27.880Z,69.96
2023-05-19T05:03:27.897Z,70.06
2023-05-19T05:04:27.812Z,70.06
2023-05-19T05:05:27.850Z,70.16
2023-05-19T05:06:27.829Z,70.16
2023-05-19T05:07:28.558Z,70.06
2023-05-19T05:08:27.790Z,69.96
2023-05-19T05:09:27.793Z,69.72
2023-05-19T05:10:27.739Z,69.93
2023-05-19T05:11:27.729Z,70.03
2023-05-19T05:12:27.776Z,70.03
2023-05-19T05:13:27.726Z,70.23
2023-05-19T05:14:27.741Z,70.34
2023-05-19T05:15:27.676Z,70.23
2023-05-19T05:16:27.740Z,70.34
2023-05-19T05:17:27.765Z,69.89
2023-05-19T05:18:27.720Z,69.38
2023-05-19T05:19:27.667Z,68.97
2023-05-19T05:20:27.632Z,68.66
2023-05-19T05:21:27.624Z,68.53
2023-05-19T05:22:27.603Z,68.33
2023-05-19T05:23:27.647Z,68.02
2023-05-19T05:24:27.579Z,67.92
2023-05-19T05:25:27.638Z,67.82
2023-05-19T05:26:27.559Z,67.61
2023-05-19T05:27:27.565Z,67.38
2023-05-19T05:28:27.528Z,66.97
2023-05-19T05:29:27.552Z,66.97
2023-05-19T05:30:27.514Z,66.66
2023-05-19T05:31:27.534Z,66.56
2023-05-19T05:32:27.556Z,66.36
2023-05-19T05:33:27.691Z,66.12
2023-05-19T05:34:27.502Z,65.81
2023-05-19T05:35:27.446Z,65.92
2023-05-19T05:36:27.493Z,65.41
2023-05-19T05:37:27.433Z,65.07
2023-05-19T05:38:27.448Z,64.76
2023-05-19T05:39:27.409Z,64.56
2023-05-19T05:40:27.403Z,64.32
2023-05-19T05:41:27.409Z,64.12
2023-05-19T05:42:29.635Z,63.89
2023-05-19T05:43:27.367Z,63.89
2023-05-19T05:44:27.365Z,63.58
2023-05-19T05:45:27.365Z,63.35
2023-05-19T05:46:27.456Z,63.24
2023-05-19T05:47:27.331Z,63.04
2023-05-19T05:48:27.324Z,62.71
2023-05-19T05:49:27.280Z,62.51
2023-05-19T05:50:27.290Z,62.81
2023-05-19T05:51:27.287Z,62.30
2023-05-19T05:52:27.268Z,61.99
2023-05-19T05:53:27.270Z,61.97
2023-05-19T05:54:27.250Z,61.76
2023-05-19T05:55:27.223Z,61.83
2023-05-19T05:56:27.209Z,61.53
2023-05-19T05:57:27.204Z,61.20
2023-05-19T05:58:27.211Z,60.99
2023-05-19T05:59:27.223Z,60.79
2023-05-19T06:00:27.169Z,60.05
2023-05-19T06:01:27.161Z,59.75
2023-05-19T06:02:27.245Z,59.62
2023-05-19T06:03:27.305Z,59.21
2023-05-19T06:04:27.173Z,58.88
2023-05-19T06:05:27.169Z,58.45
2023-05-19T06:06:27.127Z,57.81
2023-05-19T06:07:27.111Z,57.10
2023-05-19T06:08:27.091Z,57.20
2023-05-19T06:09:27.052Z,56.97
2023-05-19T06:10:27.099Z,56.57
2023-05-19T06:11:27.044Z,56.57
2023-05-19T06:12:27.076Z,56.03
2023-05-19T06:13:27.016Z,55.70
2023-05-19T06:14:26.990Z,54.99
2023-05-19T06:15:27.052Z,54.86
2023-05-19T06:16:27.028Z,54.26
2023-05-19T06:17:27.042Z,53.88
2023-05-19T06:18:26.978Z,54.16
2023-05-19T06:19:27.007Z,53.85
2023-05-19T06:20:26.930Z,53.05
2023-05-19T06:21:26.969Z,53.25
2023-05-19T06:22:26.901Z,53.14
2023-05-19T06:23:26.894Z,52.81
2023-05-19T06:24:26.925Z,52.69
2023-05-19T06:25:26.904Z,52.39
2023-05-19T06:26:26.876Z,52.69
2023-05-19T06:27:26.872Z,52.19
2023-05-19T06:28:26.837Z,52.16
2023-05-19T06:29:26.846Z,52.06
2023-05-19T06:30:26.858Z,51.43
2023-05-19T06:31:26.866Z,50.82
2023-05-19T06:32:26.828Z,51.00
2023-05-19T06:33:29.003Z,49.89
2023-05-19T06:34:26.791Z,50.09
2023-05-19T06:35:26.784Z,50.19
2023-05-19T06:36:26.769Z,50.27
2023-05-19T06:37:26.770Z,50.04
2023-05-19T06:38:26.732Z,48.24
2023-05-19T06:39:26.731Z,46.73
2023-05-19T06:40:26.736Z,43.98
2023-05-19T06:41:26.720Z,40.47
2023-05-19T06:42:26.689Z,39.50
2023-05-19T06:43:26.714Z,37.67
2023-05-19T06:44:26.654Z,36.93
2023-05-19T06:45:26.656Z,36.21
2023-05-19T06:46:26.705Z,35.80
2023-05-19T06:47:26.635Z,35.71
2023-05-19T06:48:26.646Z,35.29
2023-05-19T06:49:26.592Z,34.63
2023-05-19T06:50:26.573Z,35.22
2023-05-19T06:51:26.592Z,35.03
2023-05-19T06:52:26.585Z,35.71
2023-05-19T06:53:26.611Z,35.50
2023-05-19T06:54:26.558Z,34.81
2023-05-19T06:55:26.568Z,35.36
2023-05-19T06:56:26.543Z,37.12
2023-05-19T06:57:26.512Z,38.49
2023-05-19T06:58:26.520Z,38.87
2023-05-19T06:59:26.473Z,38.54
2023-05-19T07:00:26.508Z,37.02
2023-05-19T07:01:26.682Z,36.79
2023-05-19T07:02:26.490Z,36.37
2023-05-19T07:03:26.542Z,35.97
2023-05-19T07:04:26.426Z,36.14
2023-05-19T07:05:26.417Z,35.44
2023-05-19T07:06:26.479Z,35.42
2023-05-19T07:07:26.394Z,34.89
2023-05-19T07:08:26.414Z,34.05
2023-05-19T07:09:26.399Z,32.94
2023-05-19T07:10:26.451Z,32.89
2023-05-19T07:11:26.440Z,31.88
2023-05-19T07:12:26.358Z,31.68
2023-05-19T07:13:27.462Z,31.18
2023-05-19T07:14:26.349Z,30.77
2023-05-19T07:15:26.301Z,31.26
2023-05-19T07:16:26.331Z,30.76
2023-05-19T07:17:26.390Z,30.74
2023-05-19T07:18:26.285Z,29.95
2023-05-19T07:19:26.377Z,30.95
2023-05-19T07:20:26.335Z,31.07
2023-05-19T07:21:26.237Z,31.16
2023-05-19T07:22:26.288Z,31.39
2023-05-19T07:23:26.220Z,31.52
2023-05-19T07:24:26.241Z,33.07
2023-05-19T07:25:26.211Z,34.18
2023-05-19T07:26:26.179Z,34.18
2023-05-19T07:27:26.189Z,33.97
2023-05-19T07:28:26.184Z,33.95
2023-05-19T07:29:26.179Z,33.57
2023-05-19T07:30:26.200Z,33.76
2023-05-19T07:31:26.233Z,33.87
2023-05-19T07:32:26.196Z,34.22
2023-05-19T07:33:26.107Z,35.34
2023-05-19T07:34:26.100Z,36.14
2023-05-19T07:35:26.093Z,35.36
2023-05-19T07:36:26.085Z,35.56
2023-05-19T07:37:26.061Z,35.56
2023-05-19T07:38:26.056Z,36.07
2023-05-19T07:39:26.088Z,36.34
2023-05-19T07:40:26.056Z,35.50
2023-05-19T07:41:26.090Z,34.06
2023-05-19T07:42:26.030Z,33.25
2023-05-19T07:43:25.995Z,33.65
2023-05-19T07:44:26.008Z,33.62
2023-05-19T07:45:25.977Z,33.09
2023-05-19T07:46:26.161Z,32.71
2023-05-19T07:47:26.067Z,32.70
2023-05-19T07:48:25.985Z,32.40
2023-05-19T07:49:25.917Z,32.39
2023-05-19T07:50:25.939Z,31.79
2023-05-19T07:51:25.896Z,31.77
2023-05-19T07:52:25.898Z,31.77
2023-05-19T07:53:25.902Z,31.38
2023-05-19T07:54:25.909Z,31.46
2023-05-19T07:55:25.865Z,31.05
2023-05-19T07:56:25.864Z,30.85
2023-05-19T07:57:25.889Z,30.85
2023-05-19T07:58:25.853Z,31.66
2023-05-19T07:59:25.811Z,31.87
2023-05-19T08:00:25.806Z,31.60
2023-05-19T08:01:25.814Z,32.35
2023-05-19T08:02:25.923Z,33.29
2023-05-19T08:03:25.953Z,33.90
2023-05-19T08:04:25.814Z,33.67
2023-05-19T08:05:25.781Z,33.65
2023-05-19T08:06:25.765Z,32.69
2023-05-19T08:07:25.747Z,34.16
2023-05-19T08:08:25.751Z,35.31
2023-05-19T08:09:25.729Z,37.49
2023-05-19T08:10:25.723Z,38.63
2023-05-19T08:11:25.702Z,39.53
2023-05-19T08:12:25.676Z,39.13
2023-05-19T08:13:25.666Z,39.57
2023-05-19T08:14:25.677Z,41.13
2023-05-19T08:15:25.744Z,41.96
2023-05-19T08:16:25.730Z,42.60
2023-05-19T08:17:25.667Z,42.82
2023-05-19T08:18:25.614Z,42.69
2023-05-19T08:19:25.641Z,42.11
2023-05-19T08:20:25.621Z,42.49
2023-05-19T08:21:25.603Z,42.60
2023-05-19T08:22:25.557Z,41.85
2023-05-19T08:23:25.545Z,41.53
2023-05-19T08:24:25.550Z,41.41
2023-05-19T08:25:25.591Z,40.81
2023-05-19T08:26:25.540Z,39.87
2023-05-19T08:27:25.520Z,38.93
2023-05-19T08:28:25.502Z,38.61
2023-05-19T08:29:25.516Z,38.67
2023-05-19T08:30:25.478Z,39.49
2023-05-19T08:31:25.538Z,38.95
2023-05-19T08:32:25.555Z,38.45
2023-05-19T08:33:25.465Z,39.07
2023-05-19T08:34:25.438Z,39.89
2023-05-19T08:35:25.444Z,38.87
2023-05-19T08:36:25.420Z,39.49
2023-05-19T08:37:25.428Z,39.91
2023-05-19T08:38:25.417Z,40.23
2023-05-19T08:39:25.383Z,40.73
2023-05-19T08:40:25.369Z,41.35
2023-05-19T08:41:25.382Z,40.95
2023-05-19T08:42:25.337Z,40.79
2023-05-19T08:43:25.368Z,41.49
2023-05-19T08:44:25.329Z,41.21
2023-05-19T08:45:25.337Z,41.79
2023-05-19T08:46:25.394Z,41.07
2023-05-19T08:47:25.346Z,40.55
2023-05-19T08:48:25.286Z,41.05
2023-05-19T08:49:25.776Z,40.73
2023-05-19T08:50:25.299Z,39.99
2023-05-19T08:51:25.299Z,39.45
2023-05-19T08:52:25.256Z,39.23
2023-05-19T08:54:26.218Z,37.08
2023-05-19T08:55:25.190Z,37.77
2023-05-19T08:56:25.242Z,37.38
2023-05-19T08:57:25.189Z,37.73
2023-05-19T08:58:26.701Z,39.97
2023-05-19T08:59:25.146Z,39.85
2023-05-19T09:00:25.150Z,38.71
2023-05-19T09:01:25.256Z,37.58
2023-05-19T09:02:25.175Z,37.27
2023-05-19T09:03:25.167Z,37.16
2023-05-19T09:04:26.019Z,36.43
2023-05-19T09:05:25.107Z,35.83
2023-05-19T09:06:25.076Z,35.93
2023-05-19T09:07:25.088Z,35.38
2023-05-19T09:08:25.089Z,34.73
2023-05-19T09:09:25.056Z,34.23
2023-05-19T09:10:26.055Z,32.99
2023-05-19T09:11:25.041Z,32.45
2023-05-19T09:12:25.024Z,31.72
2023-05-19T09:13:25.047Z,31.71
2023-05-19T09:14:25.020Z,30.58
2023-05-19T09:15:25.009Z,29.90
2023-05-19T09:16:27.637Z,29.50
2023-05-19T09:17:24.976Z,29.30
2023-05-19T09:18:24.958Z,29.91
2023-05-19T09:19:25.049Z,29.69
2023-05-19T09:20:24.931Z,28.78
2023-05-19T09:21:24.909Z,29.10
2023-05-19T09:22:24.893Z,30.60
2023-05-19T09:23:24.910Z,29.38
2023-05-19T09:24:24.891Z,29.32
2023-05-19T09:25:24.880Z,29.38
2023-05-19T09:26:24.901Z,29.57
2023-05-19T09:27:24.837Z,29.05
2023-05-19T09:28:24.890Z,28.34
2023-05-19T09:29:24.814Z,27.22
2023-05-19T09:30:24.810Z,29.08
2023-05-19T09:31:24.814Z,29.65
2023-05-19T09:32:25.011Z,30.05
2023-05-19T09:33:24.826Z,29.71
2023-05-19T09:34:24.787Z,29.83
2023-05-19T09:35:24.779Z,30.13
2023-05-19T09:36:24.783Z,30.66
2023-05-19T09:37:24.769Z,32.42
2023-05-19T09:38:24.763Z,33.67
2023-05-19T09:39:24.720Z,33.60
2023-05-19T09:40:24.723Z,33.93
2023-05-19T09:41:24.705Z,36.33
2023-05-19T09:42:24.757Z,37.96
2023-05-19T09:43:24.681Z,38.25
2023-05-19T09:44:24.692Z,37.38
2023-05-19T09:45:24.662Z,35.94
2023-05-19T09:46:24.701Z,35.05
2023-05-19T09:47:24.698Z,34.99
2023-05-19T09:48:24.631Z,33.63
2023-05-19T09:49:24.622Z,33.00
2023-05-19T09:50:24.605Z,32.08
2023-05-19T09:51:24.619Z,31.48
2023-05-19T09:52:24.628Z,32.72
2023-05-19T09:53:24.595Z,32.72
2023-05-19T09:54:24.584Z,33.28
2023-05-19T09:55:24.576Z,34.51
2023-05-19T09:56:24.541Z,34.16
2023-05-19T09:57:24.558Z,32.53
2023-05-19T09:58:24.542Z,31.67
2023-05-19T09:59:24.555Z,31.37
2023-05-19T10:00:24.495Z,29.96
2023-05-19T10:01:24.518Z,29.19
2023-05-19T10:02:24.492Z,29.60
2023-05-19T10:03:24.477Z,30.35
2023-05-19T10:04:24.470Z,30.79
2023-05-19T10:05:24.502Z,32.58
2023-05-19T10:06:24.441Z,34.00
2023-05-19T10:07:24.433Z,34.00
2023-05-19T10:08:24.462Z,34.30
2023-05-19T10:09:24.417Z,34.09
2023-05-19T10:10:24.412Z,34.48
2023-05-19T10:11:24.393Z,33.88
2023-05-19T10:12:24.414Z,33.26
2023-05-19T10:13:24.356Z,31.76
2023-05-19T10:14:24.404Z,31.37
2023-05-19T10:15:24.347Z,30.38
2023-05-19T10:16:24.358Z,31.26
2023-05-19T10:17:24.477Z,31.58
2023-05-19T10:18:24.332Z,32.36
2023-05-19T10:19:24.368Z,31.65
2023-05-19T10:20:24.296Z,31.65
2023-05-19T10:21:24.290Z,32.03
2023-05-19T10:22:24.253Z,31.52
2023-05-19T10:23:24.267Z,31.70
2023-05-19T10:24:24.258Z,31.70
2023-05-19T10:25:24.252Z,31.01
2023-05-19T10:26:24.216Z,31.30
2023-05-19T10:27:24.200Z,30.89
2023-05-19T10:28:24.228Z,31.39
2023-05-19T10:29:24.173Z,32.10
2023-05-19T10:30:24.201Z,31.81
2023-05-19T10:31:24.170Z,32.33
2023-05-19T10:32:24.192Z,33.66
2023-05-19T10:33:24.160Z,34.06
2023-05-19T10:34:24.179Z,33.12
2023-05-19T10:35:24.139Z,32.29
2023-05-19T10:36:24.102Z,31.26
2023-05-19T10:37:24.102Z,30.96
2023-05-19T10:38:24.127Z,31.45
2023-05-19T10:39:24.108Z,31.37
2023-05-19T10:40:24.128Z,31.46
2023-05-19T10:41:24.065Z,31.66
2023-05-19T10:42:24.053Z,30.83
2023-05-19T10:43:24.048Z,31.12
2023-05-19T10:44:24.014Z,31.41
2023-05-19T10:45:24.024Z,31.02
2023-05-19T10:46:24.027Z,31.03
2023-05-19T10:47:24.020Z,31.53
2023-05-19T10:48:24.014Z,31.33
2023-05-19T10:49:23.983Z,31.67
2023-05-19T10:50:23.974Z,33.23
2023-05-19T10:51:23.950Z,32.71
2023-05-19T10:52:24.005Z,32.30
2023-05-19T10:53:23.949Z,32.42
2023-05-19T10:54:23.912Z,33.93
2023-05-19T10:55:23.922Z,33.50
2023-05-19T10:56:23.886Z,33.38
2023-05-19T10:57:23.920Z,32.67
2023-05-19T10:58:23.910Z,33.56
2023-05-19T10:59:23.865Z,32.89
2023-05-19T11:00:23.860Z,32.47
2023-05-19T11:01:23.888Z,32.95
2023-05-19T11:02:23.918Z,32.84
2023-05-19T11:03:24.551Z,31.77
2023-05-19T11:04:23.847Z,32.77
2023-05-19T11:05:23.801Z,32.35
2023-05-19T11:06:23.801Z,32.14
2023-05-19T11:07:23.788Z,31.40
2023-05-19T11:08:23.824Z,30.99
2023-05-19T11:09:34.160Z,29.69
2023-05-19T11:10:24.742Z,30.29
2023-05-19T11:11:23.772Z,31.32
2023-05-19T11:12:24.744Z,31.26
2023-05-19T11:13:23.719Z,32.18
2023-05-19T11:14:23.704Z,32.60
2023-05-19T11:15:23.682Z,33.95
2023-05-19T11:16:23.770Z,34.36
2023-05-19T11:17:23.810Z,34.75
2023-05-19T11:18:23.761Z,34.69
2023-05-19T11:19:23.783Z,34.06
2023-05-19T11:20:23.640Z,31.83
2023-05-19T11:21:23.702Z,31.86
2023-05-19T11:22:23.629Z,32.48
2023-05-19T11:23:23.609Z,32.90
2023-05-19T11:24:23.633Z,32.98
2023-05-19T11:25:23.589Z,32.90
2023-05-19T11:26:23.581Z,32.97
2023-05-19T11:27:23.622Z,34.59
2023-05-19T11:28:23.554Z,35.08
2023-05-19T11:29:23.549Z,35.28
2023-05-19T11:30:23.553Z,35.49
2023-05-19T11:31:23.583Z,35.81
2023-05-19T11:32:23.564Z,36.11
2023-05-19T11:33:23.519Z,35.43
2023-05-19T11:34:23.483Z,36.25
2023-05-19T11:35:23.476Z,37.08
2023-05-19T11:36:23.484Z,37.72
2023-05-19T11:37:23.467Z,38.10
2023-05-19T11:38:23.505Z,38.42
2023-05-19T11:39:23.428Z,37.96
2023-05-19T11:40:23.452Z,36.05
2023-05-19T11:41:23.433Z,36.46
2023-05-19T11:42:23.413Z,36.85
2023-05-19T11:43:23.427Z,36.35
2023-05-19T11:44:23.409Z,36.35
2023-05-19T11:45:23.372Z,35.91
2023-05-19T11:46:23.422Z,36.18
2023-05-19T11:47:23.388Z,34.64
2023-05-19T11:48:23.380Z,34.25
2023-05-19T11:49:23.335Z,35.06
2023-05-19T11:50:23.319Z,34.56
2023-05-19T11:51:23.312Z,35.16
2023-05-19T11:52:23.327Z,35.58
2023-05-19T11:53:23.298Z,35.28
2023-05-19T11:54:23.302Z,35.08
2023-05-19T11:55:23.297Z,34.89
2023-05-19T11:56:23.290Z,35.51
2023-05-19T11:57:23.283Z,36.11
2023-05-19T11:58:23.211Z,36.60
2023-05-19T11:59:23.236Z,36.61
2023-05-19T12:00:23.189Z,35.91
2023-05-19T12:01:23.242Z,35.64
2023-05-19T12:02:23.206Z,36.57
2023-05-19T12:03:23.255Z,37.70
2023-05-19T12:04:23.163Z,38.81
2023-05-19T12:05:23.279Z,38.57
2023-05-19T12:06:23.230Z,38.47
2023-05-19T12:07:23.113Z,38.47
2023-05-19T12:08:23.114Z,39.40
2023-05-19T12:09:23.135Z,40.01
2023-05-19T12:10:23.085Z,40.11
2023-05-19T12:11:23.176Z,40.43
2023-05-19T12:12:23.088Z,40.37
2023-05-19T12:13:23.057Z,41.29
2023-05-19T12:14:23.032Z,41.27
2023-05-19T12:15:23.056Z,41.27
2023-05-19T12:16:23.071Z,41.17
2023-05-19T12:17:23.024Z,41.27
2023-05-19T12:18:23.014Z,41.85
2023-05-19T12:19:23.115Z,41.74
2023-05-19T12:20:22.991Z,40.71
2023-05-19T12:21:22.974Z,40.73
2023-05-19T12:22:22.966Z,41.35
2023-05-19T12:23:22.965Z,41.77
2023-05-19T12:24:22.924Z,41.57
2023-05-19T12:25:22.957Z,41.57
2023-05-19T12:26:22.911Z,41.77
2023-05-19T12:27:22.910Z,41.67
2023-05-19T12:28:22.961Z,41.77
2023-05-19T12:29:22.884Z,41.77
2023-05-19T12:30:22.870Z,40.65
2023-05-19T12:31:22.927Z,40.15
2023-05-19T12:32:22.873Z,40.47
2023-05-19T12:33:22.902Z,41.49
2023-05-19T12:34:22.821Z,40.79
2023-05-19T12:35:22.825Z,41.87
2023-05-19T12:36:22.840Z,41.55
2023-05-19T12:37:22.831Z,40.95
2023-05-19T12:38:22.831Z,41.35
2023-05-19T12:39:22.781Z,40.33
2023-05-19T12:40:22.770Z,41.15
2023-05-19T12:41:22.749Z,41.45
2023-05-19T12:42:22.713Z,41.75
2023-05-19T12:43:22.726Z,41.55
2023-05-19T12:44:22.738Z,41.13
2023-05-19T12:45:22.699Z,41.45
2023-05-19T12:46:22.973Z,42.07
2023-05-19T12:47:22.713Z,42.78
2023-05-19T12:48:22.684Z,42.25
2023-05-19T12:49:22.661Z,41.55
2023-05-19T12:50:22.693Z,42.07
2023-05-19T12:51:22.653Z,42.49
2023-05-19T12:52:22.595Z,41.59
2023-05-19T12:53:22.620Z,41.09